Tiempo atmosférico en la estación meteorológica de El Bodón Base Aérea, Salamanca (805 m.)

Fecha
DESCASC
Temp. máxima en grados centígrados (hora)
DESCASC
Temp. mínima en grados centígrados (hora)
DESCASC
Temp. media en grados centígrados
DESCASC
Racha de viento máxima en m/sg (hora)
DESCASC
Velocidad máxima media en intervalos de 10 minutos(hora)
DESCASC
Precipitaciones diarias en mm
DESCASC
Precipitaciones de 00:00 a 06:00 en mm
DESCASC
Precipitaciones de 06:00 a 12:00 en mm
DESCASC
Precipitaciones de 12:00 a 18:00 en mm
DESCASC
Precipitaciones de 18:00 a 24:00 en mm
DESCASC
10-12-2017 11.5 (14:10) 6.6 (06:30) 9 22.78 (23:30) 14.44 (23:30) 3.6 0 0 0 3.6
09-12-2017 12.1 (16:00) 9 (07:10) 10.6 8.06 (14:10) 5.56 (14:00) 0 0 0 0 0
08-12-2017 12.9 (15:00) 4.5 (01:00) 8.7 8.61 (19:40) 5.83 (18:00) 0 0 0 0 0
07-12-2017 13.3 (14:40) -1.5 (-00:0) 5.9 4.72 (15:00) 3.61 (00:10) 0 0 0 0 0
06-12-2017 10.2 (16:00) -5.2 (-00:0) 2.5 4.72 (05:50) 4.17 (06:00) 0 0 0 0 0
05-12-2017 7.7 (17:10) -5.1 (-00:0) 1.3 4.44 (23:59) 3.61 (23:50) 0 0 0 0 0
04-12-2017 8.9 (16:20) -5.2 (-00:0) 1.8 6.11 (17:00) 3.89 (17:10) 0 0 0 0 0
03-12-2017 -- (--) -- (--) -- -- (--) -- (--) -- -- -- -- --
02-12-2017 -- (--) -- (--) -- -- (--) -- (--) -- 0 0 -- --
01-12-2017 7.2 (17:10) -4.9 (-00:0) 1.1 13.89 (15:10) 8.89 (15:10) 0 0 0 0 0
30-11-2017 6 (16:00) -2.2 (-00:0) 1.9 9.44 (12:20) 5.28 (13:00) 0 0 0 0 0
29-11-2017 8.6 (00:00) 0.5 (00:00) 4.6 9.17 (15:10) 6.11 (15:10) 0.2 0.2 0 0 0
28-11-2017 10.8 (15:00) 5.8 (00:00) 8.3 7.78 (15:50) 4.72 (15:50) 7 0 2.8 2.8 1.4
27-11-2017 13 (14:40) -1.4 (-00:0) 5.8 5.83 (14:00) 3.89 (17:40) 0 0 0 0 0
26-11-2017 11.3 (15:20) -1.7 (-00:0) 4.8 5.83 (01:20) 3.89 (01:20) 0 0 0 0 0
25-11-2017 11.6 (16:00) 4.8 (00:00) 8.2 7.78 (00:50) 6.11 (00:50) 0 0 0 0 0
24-11-2017 14.1 (12:30) 8.8 (00:00) 11.5 16.11 (00:10) 10.56 (00:10) 1.4 0 0 1 0.4
23-11-2017 15.2 (14:40) 8.9 (00:00) 12 17.78 (20:50) 10.83 (21:00) 1.4 0 0.8 0 0.6
22-11-2017 14.7 (15:10) 7.1 (00:00) 10.9 12.78 (12:20) 8.61 (12:30) 0 0 0 0 0
21-11-2017 17.2 (15:10) -0.7 (-00:0) 8.3 8.33 (12:50) 5.56 (14:50) 0 0 0 0 0
20-11-2017 18.4 (16:00) -0.4 (00:00) 9 5.83 (22:50) 4.17 (23:00) 0 0 0 0 0
19-11-2017 15.2 (17:20) -1.4 (-00:0) 6.9 4.44 (02:20) 3.89 (22:40) 0 0 0 0 0
18-11-2017 16 (16:10) -0.5 (-00:0) 7.8 6.39 (15:50) 4.17 (16:00) 0 0 0 0 0
17-11-2017 18.6 (16:30) -0.6 (-00:0) 9 4.72 (08:10) 3.61 (00:20) -- 0 -- 0 0
16-11-2017 -- (--) -- (--) -- -- (--) -- (--) -- -- -- -- --
15-11-2017 -- (--) -- (--) -- -- (--) -- (--) -- -- -- -- --

Gráficas

Temp. máximas Temp. mínimas Temp. medias Precipitaciones Rachas de viento máximas Velocidades máximas media en intervalos de 10 minutos

Datos horarios

Fecha y hora oficial Temperatura (ºC) Velocidad del viento (km/h) Dirección del viento Racha (km/h) Dirección de racha Precipitación (mm) Presión (hPa) Tendencia (hPa) Humedad (%)
2017-12-14 23:00:00 9.7 17 Oeste 30 Oeste 0 -- -- 89
2017-12-14 22:00:00 10.1 15 Oeste 28 Sudoeste 0 -- -- 90
2017-12-14 21:00:00 10.1 13 Sudoeste 21 Sudoeste 0 -- -- 91
2017-12-14 20:00:00 10.3 13 Sudoeste 21 Sudoeste 0 -- -- 89
2017-12-14 19:00:00 10.2 13 Sudoeste 22 Sudoeste 0 -- -- 90
2017-12-14 18:00:00 10.5 14 Sudoeste 18 Sudoeste 0 -- -- 90
2017-12-14 17:00:00 10.7 6 Oeste 26 Sudoeste 0 -- -- 92
2017-12-14 16:00:00 11 14 Oeste 21 Oeste 0 -- -- 90
2017-12-14 15:00:00 11.8 10 Sudoeste 19 Sudoeste 0 -- -- 87
2017-12-14 14:00:00 11.8 12 Sudoeste 22 Sudoeste 0 -- -- 87
2017-12-14 13:00:00 10.7 15 Sur 23 Sur 0 -- -- 93
2017-12-14 12:00:00 10.2 18 Sur 25 Sur 0 -- -- 93
2017-12-14 11:00:00 10 16 Sudoeste 24 Sudoeste 0 -- -- 92
2017-12-14 10:00:00 9.6 18 Sudoeste 27 Sudoeste 0 -- -- 95
2017-12-14 09:00:00 8.5 14 Sur 20 Sur 0 -- -- 94
2017-12-14 08:00:00 8.9 7 Sur 14 Sudeste 0 -- -- 95
2017-12-14 07:00:00 7.7 8 Sudeste 15 Sur 0 -- -- 96
2017-12-14 06:00:00 6.5 11 Sur 22 Sur 0 -- -- 96
2017-12-14 05:00:00 7.4 12 Sur 16 Sur 0 -- -- 93
2017-12-14 04:00:00 7.7 12 Sudeste 16 Sur 0 -- -- 93
2017-12-14 03:00:00 7.1 10 Sur 14 Sudoeste 0 -- -- 94
2017-12-14 02:00:00 6.5 7 Sur 14 Sudeste 0 -- -- 94
2017-12-14 01:00:00 5.7 8 Sur 14 Sudeste 0 -- -- 94
2017-12-14 00:00:00 5.6 8 Sur 17 Sudeste 0 -- -- 94
2017-12-13 23:00:00 5.1 8 Sur 15 Sur 0 -- -- 94
2017-12-13 22:00:00 5.4 8 Sur 13 Sur 0 -- -- 94
2017-12-13 21:00:00 6 4 Sur 9 Sur 0 -- -- 92
2017-12-13 20:00:00 6.5 6 Sudoeste 14 Sur 0 -- -- 93
2017-12-13 19:00:00 6.5 10 Sur 20 Sur 0 -- -- 92
2017-12-13 18:00:00 7.6 6 Sudoeste 17 Sudoeste 0 -- -- 87
2017-12-13 17:00:00 8.8 12 Sudoeste 21 Sudoeste 0 -- -- 85
2017-12-13 16:00:00 9.4 12 Oeste 23 Oeste 0 -- -- 83
2017-12-13 15:00:00 9.5 11 Sur 22 Sur 0 -- -- 75
2017-12-13 14:00:00 9.4 17 Sur 25 Sur 0 -- -- 73
2017-12-13 13:00:00 9.1 14 Sudoeste 28 Sur 0 -- -- 73
2017-12-13 12:00:00 8 19 Sur 27 Sur 0 -- -- 78
2017-12-13 11:00:00 4.9 14 Sur 21 Sur 0 -- -- 91
2017-12-13 10:00:00 1.8 12 Sur 19 Sur 0 -- -- 93
2017-12-13 09:00:00 0.4 9 Sur 17 Sur 0 -- -- 94
2017-12-13 08:00:00 0.7 10 Sur 15 Sur 0 -- -- 95
2017-12-13 07:00:00 -0.2 12 Sur 17 Sur 0 -- -- 95
2017-12-13 06:00:00 -0.3 11 Sur 14 Sur 0 -- -- 95
2017-12-13 05:00:00 -0.6 11 Sur 14 Sur 0 -- -- 95
2017-12-13 04:00:00 -1 9 Sur 14 Sur 0 -- -- 96
2017-12-13 03:00:00 -1.5 11 Sur 16 Sudeste 0 -- -- 95
2017-12-13 02:00:00 -1.4 9 Sur 15 Sur 0 -- -- 95
2017-12-13 01:00:00 -0.8 9 Sur 12 Sur 0 -- -- 93
2017-12-13 00:00:00 -0.7 8 Sur 10 Sur 0 -- -- 92
2017-12-12 23:00:00 -0.2 8 Sur 13 Sur 0 -- -- 93
2017-12-12 22:00:00 0.4 9 Sur 12 Sur 0 -- -- 92
2017-12-12 21:00:00 1.2 8 Sur 11 Sur 0 -- -- 88
2017-12-12 20:00:00 2.6 6 Sur 8 Sur 0 -- -- 85
2017-12-12 19:00:00 3.8 3 Norte 6 Noroeste 0 -- -- 78
2017-12-12 18:00:00 5 6 Noroeste 13 Noroeste 0 -- -- 73
2017-12-12 17:00:00 6.4 10 Noroeste 20 Norte 0 -- -- 68
2017-12-12 16:00:00 6.4 14 Noroeste 21 Noroeste 0 -- -- 69
2017-12-12 15:00:00 5.9 10 Norte 15 Norte 0 -- -- 74
2017-12-12 14:00:00 5.2 9 Nordeste 16 Norte 0 -- -- 77
2017-12-12 13:00:00 4.8 8 Norte 17 Norte 0 -- -- 79
2017-12-12 12:00:00 3.8 2 Sudoeste 9 Sudeste 0 -- -- 83
2017-12-12 11:00:00 2 6 Sur 10 Sur 0 -- -- 94
2017-12-12 10:00:00 -0.3 7 Sur 10 Sur 0 -- -- 97
2017-12-12 09:00:00 -1.9 8 Sur 10 Sur 0 -- -- 96
2017-12-12 08:00:00 -2 6 Sur 11 Sur 0 -- -- 95
2017-12-12 07:00:00 -0.8 0 Calma 6 Noroeste 0 -- -- 95
2017-12-12 06:00:00 -1.4 3 Oeste 9 Sudoeste 0 -- -- 95
2017-12-12 05:00:00 -1.4 6 Sur 9 Sur 0 -- -- 94
2017-12-12 04:00:00 -0.7 4 Noroeste 10 Norte 0 -- -- 94
2017-12-12 03:00:00 -0.7 6 Norte 10 Norte 0 -- -- 94
2017-12-12 02:00:00 -0.4 6 Norte 16 Norte 0 -- -- 94
2017-12-12 01:00:00 -0.4 8 Norte 13 Norte 0 -- -- 93
2017-12-12 00:00:00 -0.1 12 Noroeste 25 Noroeste 0 -- -- 92
2017-12-11 23:00:00 0.5 10 Norte 19 Noroeste 0 -- -- 91
2017-12-11 22:00:00 0.7 10 Norte 20 Norte 0 -- -- 91
2017-12-11 21:00:00 1.5 14 Norte 33 Norte 0 -- -- 89
2017-12-11 20:00:00 2 19 Norte 27 Norte 0 -- -- 89
2017-12-11 19:00:00 3.3 18 Noroeste 37 Noroeste 0 -- -- 91
2017-12-11 18:00:00 3.5 19 Noroeste 41 Noroeste 0 -- -- 92
2017-12-11 17:00:00 4.2 22 Noroeste 37 Noroeste 0 -- -- 94
2017-12-11 16:00:00 4.5 17 Noroeste 28 Noroeste 0.4 -- -- 94
2017-12-11 15:00:00 4.3 10 Oeste 27 Oeste 2 -- -- 92
2017-12-11 14:00:00 5.2 14 Sudoeste 30 Sudoeste 0.4 -- -- 85
2017-12-11 13:00:00 6.1 18 Sudoeste 30 Sudoeste 0 -- -- 77
2017-12-11 12:00:00 5.4 18 Sudoeste 31 Oeste 0 -- -- 77
2017-12-11 11:00:00 4.5 19 Oeste 33 Oeste 0 -- -- 82
2017-12-11 10:00:00 3.5 22 Oeste 29 Oeste 0 -- -- 86
2017-12-11 09:00:00 3 18 Oeste 33 Oeste 0 -- -- 89
2017-12-11 08:00:00 3.5 15 Oeste 39 Oeste 0 -- -- 89
2017-12-11 07:00:00 4.1 24 Oeste 46 Oeste 0 -- -- 89
2017-12-11 06:00:00 4.6 24 Oeste 42 Sudoeste 0 -- -- 88
2017-12-11 05:00:00 4.7 22 Oeste 44 Oeste 0.2 -- -- 89
2017-12-11 04:00:00 4.7 18 Oeste 49 Sudoeste 0.6 -- -- 91
2017-12-11 03:00:00 5.2 33 Sudoeste 54 Sudoeste 2.8 -- -- 90
2017-12-11 02:00:00 6 27 Oeste 46 Oeste 2.4 -- -- 95
2017-12-11 01:00:00 6.4 27 Oeste 78 Sur 4 -- -- 94
2017-12-11 00:00:00 10.2 48 Sur 82 Sur 1.8 -- -- 93
2017-12-10 23:00:00 9.9 50 Sur 80 Sur 1 -- -- 91
2017-12-10 22:00:00 10 44 Sudoeste 66 Sur 0.4 -- -- 91
2017-12-10 21:00:00 10 41 Sudoeste 69 Sur 0.4 -- -- 92
2017-12-10 20:00:00 10 42 Sur 66 Sur 0 -- -- 91
2017-12-10 19:00:00 9.6 37 Sur 59 Sudoeste 0 -- -- 90
2017-12-10 18:00:00 10 35 Sudoeste 52 Sudoeste 0 -- -- 84
2017-12-10 17:00:00 9.8 30 Sudoeste 43 Sur 0 -- -- 91
2017-12-10 16:00:00 10.1 25 Sudoeste 50 Sudoeste 0 -- -- 92
2017-12-10 15:00:00 11 30 Sudoeste 50 Sudoeste 0 -- -- 88
2017-12-10 14:00:00 11.3 29 Sudoeste 48 Sudoeste 0 -- -- 87
2017-12-10 13:00:00 10.7 28 Sur 42 Sudoeste 0 -- -- 89
2017-12-10 12:00:00 9.6 28 Sudoeste 44 Sudoeste 0 -- -- 92
2017-12-10 11:00:00 9.4 27 Sur 39 Sur 0 -- -- 91
2017-12-10 10:00:00 9 25 Sur 39 Sur 0 -- -- 90
2017-12-10 09:00:00 8.4 22 Sur 32 Sur 0 -- -- 90
2017-12-10 08:00:00 7.9 17 Sur 29 Sudoeste 0 -- -- 92
2017-12-10 07:00:00 7.2 19 Sudoeste 28 Sudoeste 0 -- -- 93
2017-12-10 06:00:00 7.3 14 Sur 22 Sur 0 -- -- 89
2017-12-10 05:00:00 8.2 15 Sur 19 Sur 0 -- -- 87
2017-12-10 04:00:00 9.4 15 Sudoeste 23 Sur 0 -- -- 83
2017-12-10 03:00:00 9.2 16 Sur 23 Sur 0 -- -- 87
2017-12-10 02:00:00 9.7 8 Sur 18 Oeste 0 -- -- 82
2017-12-10 01:00:00 9 11 Oeste 22 Oeste 0 -- -- 86
2017-12-10 00:00:00 9.8 12 Oeste 23 Oeste 0 -- -- 86
2017-12-09 23:00:00 10.1 10 Oeste 20 Sudoeste 0 -- -- 88
2017-12-09 22:00:00 10.3 7 Sudoeste 20 Sudoeste 0 -- -- 86
2017-12-09 21:00:00 10.3 10 Sudoeste 18 Oeste 0 -- -- 86
2017-12-09 20:00:00 -- -- -- -- -- -- -- -- --
2017-12-09 19:00:00 -- -- -- -- -- -- -- -- --
2017-12-09 18:00:00 -- -- -- -- -- -- -- -- --
2017-12-09 17:00:00 -- -- -- -- -- -- -- -- --
2017-12-09 16:00:00 -- -- -- -- -- -- -- -- --
2017-12-09 15:00:00 -- -- -- -- -- -- -- -- --
2017-12-09 14:00:00 -- -- -- -- -- -- -- -- --
2017-12-09 13:00:00 -- -- -- -- -- -- -- -- --
2017-12-09 12:00:00 -- -- -- -- -- -- -- -- --
2017-12-09 11:00:00 -- -- -- -- -- -- -- -- --
2017-12-09 10:00:00 -- -- -- -- -- -- -- -- --
2017-12-09 09:00:00 -- -- -- -- -- -- -- -- --
2017-12-09 08:00:00 -- -- -- -- -- -- -- -- --
2017-12-09 07:00:00 -- -- -- -- -- -- -- -- --
2017-12-09 06:00:00 -- -- -- -- -- -- -- -- --
2017-12-09 05:00:00 -- -- -- -- -- -- -- -- --
2017-12-09 04:00:00 -- -- -- -- -- -- -- -- --
2017-12-09 03:00:00 -- -- -- -- -- -- -- -- --
2017-12-09 02:00:00 -- -- -- -- -- -- -- -- --
2017-12-09 01:00:00 -- -- -- -- -- -- -- -- --
2017-12-09 00:00:00 -- -- -- -- -- -- -- -- --
2017-12-08 23:00:00 -- -- -- -- -- -- -- -- --
2017-12-08 22:00:00 -- -- -- -- -- -- -- -- --
2017-12-08 21:00:00 -- -- -- -- -- -- -- -- --
2017-12-08 20:00:00 -- -- -- -- -- -- -- -- --
2017-12-08 19:00:00 -- -- -- -- -- -- -- -- --
2017-12-08 18:00:00 -- -- -- -- -- -- -- -- --
2017-12-08 17:00:00 -- -- -- -- -- -- -- -- --
2017-12-08 16:00:00 -- -- -- -- -- -- -- -- --
2017-12-08 15:00:00 -- -- -- -- -- -- -- -- --
2017-12-08 14:00:00 -- -- -- -- -- -- -- -- --
2017-12-08 13:00:00 -- -- -- -- -- -- -- -- --
2017-12-08 12:00:00 -- -- -- -- -- -- -- -- --
2017-12-08 11:00:00 -- -- -- -- -- -- -- -- --
2017-12-08 10:00:00 -- -- -- -- -- -- -- -- --
2017-12-08 09:00:00 -- -- -- -- -- -- -- -- --
2017-12-08 08:00:00 -- -- -- -- -- -- -- -- --
2017-12-08 07:00:00 -- -- -- -- -- -- -- -- --
2017-12-08 06:00:00 -- -- -- -- -- -- -- -- --
2017-12-08 05:00:00 -- -- -- -- -- -- -- -- --
2017-12-08 04:00:00 -- -- -- -- -- -- -- -- --
2017-12-08 03:00:00 -- -- -- -- -- -- -- -- --
2017-12-08 02:00:00 -- -- -- -- -- -- -- -- --
2017-12-08 01:00:00 -- -- -- -- -- -- -- -- --
2017-12-08 00:00:00 -- -- -- -- -- -- -- -- --
2017-12-07 23:00:00 -- -- -- -- -- -- -- -- --
2017-12-07 22:00:00 -- -- -- -- -- -- -- -- --
2017-12-07 21:00:00 -- -- -- -- -- -- -- -- --
2017-12-07 20:00:00 -- -- -- -- -- -- -- -- --
2017-12-07 19:00:00 -- -- -- -- -- -- -- -- --
2017-12-07 18:00:00 -- -- -- -- -- -- -- -- --
2017-12-07 17:00:00 -- -- -- -- -- -- -- -- --
2017-12-07 16:00:00 -- -- -- -- -- -- -- -- --
2017-12-07 15:00:00 -- -- -- -- -- -- -- -- --
2017-12-07 14:00:00 -- -- -- -- -- -- -- -- --
2017-12-07 13:00:00 -- -- -- -- -- -- -- -- --
2017-12-07 12:00:00 -- -- -- -- -- -- -- -- --
2017-12-07 11:00:00 -- -- -- -- -- -- -- -- --
2017-12-07 10:00:00 -- -- -- -- -- -- -- -- --
2017-12-07 09:00:00 -- -- -- -- -- -- -- -- --
2017-12-07 08:00:00 -- -- -- -- -- -- -- -- --
2017-12-07 07:00:00 -- -- -- -- -- -- -- -- --
2017-12-07 06:00:00 -- -- -- -- -- -- -- -- --
2017-12-07 05:00:00 -- -- -- -- -- -- -- -- --
2017-12-07 04:00:00 -- -- -- -- -- -- -- -- --
2017-12-07 03:00:00 -- -- -- -- -- -- -- -- --
2017-12-07 02:00:00 -- -- -- -- -- -- -- -- --
2017-12-07 01:00:00 -- -- -- -- -- -- -- -- --
2017-12-07 00:00:00 -- -- -- -- -- -- -- -- --
2017-12-06 23:00:00 -- -- -- -- -- -- -- -- --
2017-12-06 22:00:00 -- -- -- -- -- -- -- -- --
2017-12-06 21:00:00 -- -- -- -- -- -- -- -- --
2017-12-06 20:00:00 -- -- -- -- -- -- -- -- --
2017-12-06 19:00:00 -- -- -- -- -- -- -- -- --
2017-12-06 18:00:00 -- -- -- -- -- -- -- -- --
2017-12-06 17:00:00 -- -- -- -- -- -- -- -- --
2017-12-06 16:00:00 -- -- -- -- -- -- -- -- --
2017-12-06 15:00:00 -- -- -- -- -- -- -- -- --
2017-12-06 14:00:00 -- -- -- -- -- -- -- -- --
2017-12-06 13:00:00 -- -- -- -- -- -- -- -- --
2017-12-06 12:00:00 -- -- -- -- -- -- -- -- --
2017-12-06 11:00:00 -- -- -- -- -- -- -- -- --
2017-12-06 10:00:00 -- -- -- -- -- -- -- -- --
2017-12-06 09:00:00 -- -- -- -- -- -- -- -- --
2017-12-06 08:00:00 -- -- -- -- -- -- -- -- --
2017-12-06 07:00:00 -- -- -- -- -- -- -- -- --
2017-12-06 06:00:00 -- -- -- -- -- -- -- -- --
2017-12-06 05:00:00 -- -- -- -- -- -- -- -- --
2017-12-06 04:00:00 -- -- -- -- -- -- -- -- --
2017-12-06 03:00:00 -- -- -- -- -- -- -- -- --
2017-12-06 02:00:00 -- -- -- -- -- -- -- -- --
2017-12-06 01:00:00 -- -- -- -- -- -- -- -- --
2017-12-06 00:00:00 -- -- -- -- -- -- -- -- --
2017-12-05 23:00:00 -- -- -- -- -- -- -- -- --
2017-12-05 22:00:00 -- -- -- -- -- -- -- -- --
2017-12-05 21:00:00 -- -- -- -- -- -- -- -- --
2017-12-05 20:00:00 -- -- -- -- -- -- -- -- --
2017-12-05 19:00:00 -- -- -- -- -- -- -- -- --
2017-12-05 18:00:00 -- -- -- -- -- -- -- -- --
2017-12-05 17:00:00 -- -- -- -- -- -- -- -- --
2017-12-05 16:00:00 -- -- -- -- -- -- -- -- --
2017-12-05 15:00:00 -- -- -- -- -- -- -- -- --
2017-12-05 14:00:00 -- -- -- -- -- -- -- -- --
2017-12-05 13:00:00 -- -- -- -- -- -- -- -- --
2017-12-05 12:00:00 -- -- -- -- -- -- -- -- --
2017-12-05 11:00:00 -- -- -- -- -- -- -- -- --
2017-12-05 10:00:00 -- -- -- -- -- -- -- -- --
2017-12-05 09:00:00 -- -- -- -- -- -- -- -- --
2017-12-05 08:00:00 -- -- -- -- -- -- -- -- --
2017-12-05 07:00:00 -- -- -- -- -- -- -- -- --
2017-12-05 06:00:00 -- -- -- -- -- -- -- -- --
2017-12-05 05:00:00 -- -- -- -- -- -- -- -- --
2017-12-05 04:00:00 -- -- -- -- -- -- -- -- --
2017-12-05 03:00:00 -- -- -- -- -- -- -- -- --
2017-12-05 02:00:00 -- -- -- -- -- -- -- -- --
2017-12-05 01:00:00 -- -- -- -- -- -- -- -- --
2017-12-05 00:00:00 -- -- -- -- -- -- -- -- --
2017-12-04 23:00:00 -- -- -- -- -- -- -- -- --
2017-12-04 22:00:00 -- -- -- -- -- -- -- -- --
2017-12-04 21:00:00 -- -- -- -- -- -- -- -- --
2017-12-04 20:00:00 -- -- -- -- -- -- -- -- --
2017-12-04 19:00:00 -- -- -- -- -- -- -- -- --
2017-12-04 18:00:00 -- -- -- -- -- -- -- -- --
2017-12-04 17:00:00 -- -- -- -- -- -- -- -- --
2017-12-04 16:00:00 -- -- -- -- -- -- -- -- --
2017-12-04 15:00:00 -- -- -- -- -- -- -- -- --
2017-12-04 14:00:00 -- -- -- -- -- -- -- -- --
2017-12-04 13:00:00 -- -- -- -- -- -- -- -- --
2017-12-04 12:00:00 -- -- -- -- -- -- -- -- --
2017-12-04 11:00:00 -- -- -- -- -- -- -- -- --
2017-12-04 10:00:00 -- -- -- -- -- -- -- -- --
2017-12-04 09:00:00 -- -- -- -- -- -- -- -- --
2017-12-04 08:00:00 -- -- -- -- -- -- -- -- --
2017-12-04 07:00:00 -- -- -- -- -- -- -- -- --
2017-12-04 06:00:00 -- -- -- -- -- -- -- -- --
2017-12-04 05:00:00 -- -- -- -- -- -- -- -- --
2017-12-04 04:00:00 -- -- -- -- -- -- -- -- --
2017-12-04 03:00:00 -- -- -- -- -- -- -- -- --
2017-12-04 02:00:00 -- -- -- -- -- -- -- -- --
2017-12-04 01:00:00 -- -- -- -- -- -- -- -- --
2017-12-04 00:00:00 -- -- -- -- -- -- -- -- --
2017-12-03 23:00:00 -- -- -- -- -- -- -- -- --
2017-12-03 22:00:00 -- -- -- -- -- -- -- -- --
2017-12-03 21:00:00 -- -- -- -- -- -- -- -- --
2017-12-03 20:00:00 -- -- -- -- -- -- -- -- --
2017-12-03 19:00:00 -- -- -- -- -- -- -- -- --
2017-12-03 18:00:00 -- -- -- -- -- -- -- -- --
2017-12-03 17:00:00 -- -- -- -- -- -- -- -- --
2017-12-03 16:00:00 -- -- -- -- -- -- -- -- --
2017-12-03 15:00:00 -- -- -- -- -- -- -- -- --
2017-12-03 14:00:00 -- -- -- -- -- -- -- -- --
2017-12-03 13:00:00 -- -- -- -- -- -- -- -- --
2017-12-03 12:00:00 -- -- -- -- -- -- -- -- --
2017-12-03 11:00:00 -- -- -- -- -- -- -- -- --
2017-12-03 10:00:00 -- -- -- -- -- -- -- -- --
2017-12-03 09:00:00 -- -- -- -- -- -- -- -- --
2017-12-03 08:00:00 -- -- -- -- -- -- -- -- --
2017-12-03 07:00:00 -- -- -- -- -- -- -- -- --
2017-12-03 06:00:00 -- -- -- -- -- -- -- -- --
2017-12-03 05:00:00 -- -- -- -- -- -- -- -- --
2017-12-03 04:00:00 -- -- -- -- -- -- -- -- --
2017-12-03 03:00:00 -- -- -- -- -- -- -- -- --
2017-12-03 02:00:00 -- -- -- -- -- -- -- -- --
2017-12-03 01:00:00 -- -- -- -- -- -- -- -- --
2017-12-03 00:00:00 -- -- -- -- -- -- -- -- --
2017-12-02 23:00:00 -- -- -- -- -- -- -- -- --
2017-12-02 22:00:00 -- -- -- -- -- -- -- -- --
2017-12-02 21:00:00 -- -- -- -- -- -- -- -- --
2017-12-02 20:00:00 -- -- -- -- -- -- -- -- --
2017-12-02 19:00:00 -- -- -- -- -- -- -- -- --
2017-12-02 18:00:00 -- -- -- -- -- -- -- -- --
2017-12-02 17:00:00 -- -- -- -- -- -- -- -- --
2017-12-02 16:00:00 5.9 6 Norte 19 Noroeste 0 -- -- 58
2017-12-02 15:00:00 5.1 9 Norte 17 Norte 0 -- -- 61
2017-12-02 14:00:00 4.2 6 Norte 15 Norte 0 -- -- 63
2017-12-02 13:00:00 3.1 7 Norte 13 Norte 0 -- -- 66
2017-12-02 12:00:00 1.7 7 Norte 11 Norte 0 -- -- 73
2017-12-02 11:00:00 0.5 5 Norte 8 Norte 0 -- -- 85
2017-12-02 10:00:00 -2.6 3 Sudeste 10 Sur 0 -- -- 95
2017-12-02 09:00:00 -5.2 9 Sur 14 Sur 0 -- -- 95
2017-12-02 08:00:00 -5.6 9 Sur 15 Sur 0 -- -- 94
2017-12-02 07:00:00 -4.9 9 Sur 10 Sur 0 -- -- 92
2017-12-02 06:00:00 -3.8 2 Nordeste 5 Norte 0 -- -- 91
2017-12-02 05:00:00 -3.7 3 Sur 6 Sudeste 0 -- -- 90
2017-12-02 04:00:00 -2.5 0 Calma 6 Noroeste 0 -- -- 89
2017-12-02 03:00:00 -2.2 3 Noroeste 4 Noroeste 0 -- -- 88
2017-12-02 02:00:00 -1.5 3 Norte 6 Norte 0 -- -- 87
2017-12-02 01:00:00 -1.6 3 Noroeste 7 Norte 0 -- -- 87
2017-12-02 00:00:00 -0.5 6 Norte 12 Nordeste 0 -- -- 84
2017-12-01 23:00:00 0.5 8 Norte 17 Nordeste 0 -- -- 80
2017-12-01 22:00:00 1.1 4 Norte 29 Nordeste 0 -- -- 77
2017-12-01 21:00:00 2.1 12 Nordeste 23 Nordeste 0 -- -- 77
2017-12-01 20:00:00 3 9 Norte 18 Nordeste 0 -- -- 85
2017-12-01 19:00:00 3.6 6 Norte 16 Norte 0 -- -- 88
2017-12-01 18:00:00 4 11 Norte 46 Norte 0 -- -- 87
2017-12-01 17:00:00 7 28 Noroeste 45 Noroeste 0 -- -- 70
2017-12-01 16:00:00 7 31 Noroeste 50 Noroeste 0 -- -- 71
2017-12-01 15:00:00 6.6 30 Noroeste 45 Noroeste 0 -- -- 72
2017-12-01 14:00:00 6.7 27 Noroeste 42 Noroeste 0 -- -- 71
2017-12-01 13:00:00 5.8 24 Noroeste 42 Noroeste 0 -- -- 75
2017-12-01 12:00:00 4.6 24 Noroeste 34 Noroeste 0 -- -- 79
2017-12-01 11:00:00 2.9 15 Norte 32 Noroeste 0 -- -- 88
2017-12-01 10:00:00 -0.5 10 Noroeste 15 Noroeste 0 -- -- 95
2017-12-01 09:00:00 -4.8 2 Sudoeste 4 Sur 0 -- -- 94
2017-12-01 08:00:00 -4.7 4 Sur 8 Sur 0 -- -- 94
2017-12-01 07:00:00 -4.3 2 Oeste 8 Sur 0 -- -- 93
2017-12-01 06:00:00 -3.6 2 Sur 7 Sur 0 -- -- 93
2017-12-01 05:00:00 -1.7 3 Norte 8 Norte 0 -- -- 92
2017-12-01 04:00:00 -2.8 2 Norte 11 Sudeste 0 -- -- 93
2017-12-01 03:00:00 -3 5 Sur 9 Sudeste 0 -- -- 90
2017-12-01 02:00:00 -2.4 3 Oeste 6 Sur 0 -- -- 90
2017-12-01 01:00:00 -2.2 4 Sur 8 Oeste 0 -- -- 88
2017-12-01 00:00:00 -1.7 3 Noroeste 8 Sur 0 -- -- 87
2017-11-30 23:00:00 0.6 2 Noroeste 6 Noroeste 0 -- -- 78
2017-11-30 22:00:00 0.7 2 Noroeste 6 Oeste 0 -- -- 76
2017-11-30 21:00:00 1 4 Norte 10 Norte 0 -- -- 75
2017-11-30 20:00:00 1.1 5 Noroeste 9 Nordeste 0 -- -- 75
2017-11-30 19:00:00 2.6 8 Nordeste 9 Nordeste 0 -- -- 70
2017-11-30 18:00:00 -- -- -- -- -- -- -- -- --
2017-11-30 17:00:00 -- -- -- -- -- -- -- -- --
2017-11-30 16:00:00 -- -- -- -- -- -- -- -- --
2017-11-30 15:00:00 -- -- -- -- -- -- -- -- --
2017-11-30 14:00:00 -- -- -- -- -- -- -- -- --
2017-11-30 13:00:00 -- -- -- -- -- -- -- -- --
2017-11-30 12:00:00 -- -- -- -- -- -- -- -- --
2017-11-30 11:00:00 -- -- -- -- -- -- -- -- --
2017-11-30 10:00:00 -- -- -- -- -- -- -- -- --
2017-11-30 09:00:00 -- -- -- -- -- -- -- -- --
2017-11-30 08:00:00 -2.1 10 Norte 15 Norte 0 -- -- 95
2017-11-30 07:00:00 -1.9 10 Norte 19 Norte 0 -- -- 94
2017-11-30 06:00:00 -1.6 13 Norte 18 Norte 0 -- -- 95
2017-11-30 05:00:00 -1.5 12 Norte 17 Norte 0 -- -- 95
2017-11-30 04:00:00 -1.6 6 Norte 15 Norte 0 -- -- 93
2017-11-30 03:00:00 -1.2 8 Norte 16 Norte 0 -- -- 92
2017-11-30 02:00:00 -0.5 12 Norte 20 Norte 0 -- -- 92
2017-11-30 01:00:00 0 11 Norte 17 Norte 0 -- -- 92
2017-11-30 00:00:00 0.5 8 Norte 13 Norte 0 -- -- 91
2017-11-29 23:00:00 1.2 8 Norte 19 Norte 0 -- -- 89
2017-11-29 22:00:00 2.1 8 Norte 12 Noroeste 0 -- -- 86
2017-11-29 21:00:00 2.5 7 Norte 10 Norte 0 -- -- 86
2017-11-29 20:00:00 2.4 6 Norte 8 Noroeste 0 -- -- 83
2017-11-29 19:00:00 4 5 Norte 22 Nordeste 0 -- -- 76
2017-11-29 18:00:00 5.5 9 Nordeste 28 Norte 0 -- -- 72
2017-11-29 17:00:00 6.5 15 Norte 31 Nordeste 0 -- -- 68
2017-11-29 16:00:00 6.9 18 Nordeste 33 Norte 0 -- -- 70
2017-11-29 15:00:00 6.5 21 Norte 32 Norte 0 -- -- 82
2017-11-29 14:00:00 5 17 Norte 27 Norte 0 -- -- 99
2017-11-29 13:00:00 3.1 16 Norte 27 Noroeste 0 -- -- 100
2017-11-29 12:00:00 2 13 Norte 22 Noroeste 0 -- -- 99
2017-11-29 11:00:00 1.3 16 Norte 23 Norte 0 -- -- 99
2017-11-29 10:00:00 1 14 Norte 23 Norte 0 -- -- 99
2017-11-29 09:00:00 0.9 13 Norte 21 Norte 0 -- -- 99
2017-11-29 08:00:00 0.9 13 Norte 20 Noroeste 0 -- -- 99
2017-11-29 07:00:00 1.2 13 Norte 20 Norte 0 -- -- 99
2017-11-29 06:00:00 1.7 6 Norte 17 Norte 0 -- -- 98
2017-11-29 05:00:00 3.2 15 Norte 22 Noroeste 0 -- -- 98
2017-11-29 04:00:00 4.6 12 Noroeste 18 Norte 0 -- -- 97
2017-11-29 03:00:00 6.2 6 Norte 12 Norte 0 -- -- 98
2017-11-29 02:00:00 6.8 9 Norte 19 Noroeste 0 -- -- 98
2017-11-29 01:00:00 7.5 14 Norte 20 Norte 0.2 -- -- 97
2017-11-29 00:00:00 8.6 10 Norte 18 Norte 0.2 -- -- 97
2017-11-28 23:00:00 9.1 2 Sur 6 Sur 0 -- -- 97
2017-11-28 22:00:00 9.1 5 Sur 8 Sur 0 -- -- 97
2017-11-28 21:00:00 9.3 5 Sudoeste 8 Sur 0 -- -- 96
2017-11-28 20:00:00 9.4 4 Sudoeste 6 Sudoeste 0.4 -- -- 96
2017-11-28 19:00:00 9.5 3 Oeste 11 Sur 0.8 -- -- 96
2017-11-28 18:00:00 9.9 10 Sur 12 Sur 0.6 -- -- 95
2017-11-28 17:00:00 10.4 5 Sur 21 Sur 0.2 -- -- 95
2017-11-28 16:00:00 10.8 15 Sur 28 Sur 0.4 -- -- 95
2017-11-28 15:00:00 10.8 14 Sur 25 Sudoeste 0.6 -- -- 96
2017-11-28 14:00:00 10.3 4 Noroeste 11 Sudoeste 0.4 -- -- 95
2017-11-28 13:00:00 9.9 8 Sur 13 Sur 0.6 -- -- 96
2017-11-28 12:00:00 8.8 5 Sudeste 9 Sur 1.4 -- -- 96
2017-11-28 11:00:00 8 0 Calma 9 Sur 0.2 -- -- 95
2017-11-28 10:00:00 7.6 5 Sur 7 Sur 0 -- -- 94
2017-11-28 09:00:00 7.2 2 Este 6 Este 0.6 -- -- 93
2017-11-28 08:00:00 6.6 0 Calma 4 Sudeste 0.4 -- -- 91
2017-11-28 07:00:00 6.3 3 Sur 12 Sur 0.2 -- -- 88
2017-11-28 06:00:00 6.2 5 Sudeste 9 Sur 0 -- -- 83
2017-11-28 05:00:00 6.7 3 Sudeste 10 Sur 0 -- -- 74
2017-11-28 04:00:00 6.8 8 Sur 10 Sur 0 -- -- 68
2017-11-28 03:00:00 6.7 8 Sur 12 Sur 0 -- -- 69
2017-11-28 02:00:00 6.4 6 Sur 10 Sur 0 -- -- 69
2017-11-28 01:00:00 6.2 6 Sur 12 Sur 0 -- -- 67
2017-11-28 00:00:00 5.8 8 Sur 12 Sur 0 -- -- 70
2017-11-27 23:00:00 6 7 Sur 12 Sur 0 -- -- 71
2017-11-27 22:00:00 6.3 6 Sur 11 Sur 0 -- -- 69
2017-11-27 21:00:00 6.8 7 Sudeste 11 Sur 0 -- -- 64
2017-11-27 20:00:00 7 8 Sur 14 Sur 0 -- -- 59
2017-11-27 19:00:00 7.3 6 Sur 15 Sur 0 -- -- 59
2017-11-27 18:00:00 9.6 11 Sur 19 Sur 0 -- -- 52
2017-11-27 17:00:00 11.1 13 Sur 18 Sur 0 -- -- 44
2017-11-27 16:00:00 12.7 13 Sur 18 Sur 0 -- -- 38
2017-11-27 15:00:00 12.8 11 Sur 21 Sur 0 -- -- 39
2017-11-27 14:00:00 12.3 11 Sur 21 Sur 0 -- -- 38
2017-11-27 13:00:00 10.2 4 Sur 9 Sudoeste 0 -- -- 60
2017-11-27 12:00:00 7.3 5 Sur 7 Sudeste 0 -- -- 67
2017-11-27 11:00:00 -- -- -- -- -- -- -- -- --
2017-11-27 10:00:00 -- -- -- -- -- -- -- -- --
2017-11-27 09:00:00 -- -- -- -- -- -- -- -- --
2017-11-27 08:00:00 -- -- -- -- -- -- -- -- --
2017-11-27 07:00:00 -- -- -- -- -- -- -- -- --
2017-11-27 06:00:00 -- -- -- -- -- -- -- -- --
2017-11-27 05:00:00 -- -- -- -- -- -- -- -- --
2017-11-27 04:00:00 -- -- -- -- -- -- -- -- --
2017-11-27 03:00:00 -- -- -- -- -- -- -- -- --
2017-11-27 02:00:00 -- -- -- -- -- -- -- -- --
2017-11-27 01:00:00 -- -- -- -- -- -- -- -- --
2017-11-27 00:00:00 -- -- -- -- -- -- -- -- --
2017-11-26 23:00:00 -- -- -- -- -- -- -- -- --
2017-11-26 22:00:00 -- -- -- -- -- -- -- -- --
2017-11-26 21:00:00 -- -- -- -- -- -- -- -- --
2017-11-26 20:00:00 -- -- -- -- -- -- -- -- --
2017-11-26 19:00:00 -- -- -- -- -- -- -- -- --
2017-11-26 18:00:00 -- -- -- -- -- -- -- -- --
2017-11-26 17:00:00 -- -- -- -- -- -- -- -- --
2017-11-26 16:00:00 -- -- -- -- -- -- -- -- --
2017-11-26 15:00:00 -- -- -- -- -- -- -- -- --
2017-11-26 14:00:00 -- -- -- -- -- -- -- -- --
2017-11-26 13:00:00 -- -- -- -- -- -- -- -- --
2017-11-26 12:00:00 -- -- -- -- -- -- -- -- --
2017-11-26 11:00:00 -- -- -- -- -- -- -- -- --
2017-11-26 10:00:00 -- -- -- -- -- -- -- -- --
2017-11-26 09:00:00 -- -- -- -- -- -- -- -- --
2017-11-26 08:00:00 -- -- -- -- -- -- -- -- --
2017-11-26 07:00:00 -- -- -- -- -- -- -- -- --
2017-11-26 06:00:00 -- -- -- -- -- -- -- -- --
2017-11-26 05:00:00 -- -- -- -- -- -- -- -- --
2017-11-26 04:00:00 -- -- -- -- -- -- -- -- --
2017-11-26 03:00:00 -- -- -- -- -- -- -- -- --
2017-11-26 02:00:00 -- -- -- -- -- -- -- -- --
2017-11-26 01:00:00 -- -- -- -- -- -- -- -- --
2017-11-26 00:00:00 -- -- -- -- -- -- -- -- --
2017-11-25 23:00:00 -- -- -- -- -- -- -- -- --
2017-11-25 22:00:00 -- -- -- -- -- -- -- -- --
2017-11-25 21:00:00 -- -- -- -- -- -- -- -- --
2017-11-25 20:00:00 -- -- -- -- -- -- -- -- --
2017-11-25 19:00:00 -- -- -- -- -- -- -- -- --
2017-11-25 18:00:00 -- -- -- -- -- -- -- -- --
2017-11-25 17:00:00 -- -- -- -- -- -- -- -- --
2017-11-25 16:00:00 -- -- -- -- -- -- -- -- --
2017-11-25 15:00:00 -- -- -- -- -- -- -- -- --
2017-11-25 14:00:00 -- -- -- -- -- -- -- -- --
2017-11-25 13:00:00 -- -- -- -- -- -- -- -- --
2017-11-25 12:00:00 -- -- -- -- -- -- -- -- --
2017-11-25 11:00:00 -- -- -- -- -- -- -- -- --
2017-11-25 10:00:00 -- -- -- -- -- -- -- -- --
2017-11-25 09:00:00 -- -- -- -- -- -- -- -- --
2017-11-25 08:00:00 -- -- -- -- -- -- -- -- --
2017-11-25 07:00:00 -- -- -- -- -- -- -- -- --
2017-11-25 06:00:00 -- -- -- -- -- -- -- -- --
2017-11-25 05:00:00 -- -- -- -- -- -- -- -- --
2017-11-25 04:00:00 -- -- -- -- -- -- -- -- --
2017-11-25 03:00:00 -- -- -- -- -- -- -- -- --
2017-11-25 02:00:00 -- -- -- -- -- -- -- -- --
2017-11-25 01:00:00 -- -- -- -- -- -- -- -- --
2017-11-25 00:00:00 -- -- -- -- -- -- -- -- --
2017-11-24 23:00:00 10.5 13 Sur 24 Sur 0 -- -- 88
2017-11-24 22:00:00 10.9 14 Sur 27 Sur 0 -- -- 86
2017-11-24 21:00:00 12 16 Sur 31 Sur 0 -- -- 80
2017-11-24 20:00:00 11.8 18 Sur 30 Sur 0 -- -- 81
2017-11-24 19:00:00 12.1 14 Sur 28 Sur 0.4 -- -- 87
2017-11-24 18:00:00 12.9 20 Sur 40 Sur 0 -- -- 81
2017-11-24 17:00:00 12.8 24 Sur 42 Sur 0.6 -- -- 82
2017-11-24 16:00:00 12.9 23 Sur 41 Sur 0 -- -- 84
2017-11-24 15:00:00 13 27 Sur 41 Sur 0.2 -- -- 87
2017-11-24 14:00:00 12.6 16 Sur 34 Sur 0.2 -- -- 91
2017-11-24 13:00:00 13.7 27 Sur 41 Sur 0 -- -- 84
2017-11-24 12:00:00 13.9 29 Sur 43 Sur 0 -- -- 82
2017-11-24 11:00:00 12.8 26 Sur 37 Sur 0 -- -- 90
2017-11-24 10:00:00 10.9 22 Sur 36 Sur 0 -- -- 95
2017-11-24 09:00:00 10 17 Sur 27 Sur 0 -- -- 95
2017-11-24 08:00:00 9.8 16 Sur 26 Sur 0 -- -- 95
2017-11-24 07:00:00 9.9 14 Sur 21 Sur 0 -- -- 94
2017-11-24 06:00:00 9.8 18 Sur 40 Sur 0 -- -- 94
2017-11-24 05:00:00 10.2 32 Sur 42 Sur 0 -- -- 93
2017-11-24 04:00:00 9.6 26 Sur 44 Sur 0 -- -- 92
2017-11-24 03:00:00 9.1 25 Sur 44 Sur 0 -- -- 94
2017-11-24 02:00:00 8.9 27 Sur 53 Sur 0 -- -- 93
2017-11-24 01:00:00 9 33 Sur 58 Sur 0 -- -- 89
2017-11-24 00:00:00 9 37 Sur 57 Sur 0 -- -- 87
2017-11-23 23:00:00 9.1 35 Sudeste 57 Sudeste 0 -- -- 88
2017-11-23 22:00:00 9.3 21 Sur 44 Sur 0.6 -- -- 87
2017-11-23 21:00:00 11.7 39 Sur 64 Sur 0 -- -- 69
2017-11-23 20:00:00 13.2 17 Sur 38 Sudeste 0 -- -- 52
2017-11-23 19:00:00 13.5 19 Sur 33 Sur 0 -- -- 51
2017-11-23 18:00:00 13.5 18 Sur 35 Sur 0 -- -- 55
2017-11-23 17:00:00 14.3 18 Sur 36 Sur 0 -- -- 54
2017-11-23 16:00:00 15 24 Sur 40 Sur 0 -- -- 53
2017-11-23 15:00:00 14.9 21 Sur 39 Sur 0 -- -- 56
2017-11-23 14:00:00 14.3 24 Sur 41 Sur 0 -- -- 61
2017-11-23 13:00:00 13.8 25 Sur 43 Sur 0 -- -- 67
2017-11-23 12:00:00 12.7 28 Sur 45 Sur 0 -- -- 72
2017-11-23 11:00:00 12.4 23 Sur 43 Sur 0 -- -- 76
2017-11-23 10:00:00 10.7 20 Sur 31 Sur 0 -- -- 86
2017-11-23 09:00:00 10.4 30 Sur 47 Sur 0.8 -- -- 88
2017-11-23 08:00:00 10.1 24 Sur 40 Sur 0 -- -- 77
2017-11-23 07:00:00 11.4 25 Sur 38 Sur 0 -- -- 77
2017-11-23 06:00:00 11.1 22 Sur 37 Sur 0 -- -- 73
2017-11-23 05:00:00 11.7 25 Sur 40 Sur 0 -- -- 71
2017-11-23 04:00:00 11.3 24 Sur 42 Sur 0 -- -- 63
2017-11-23 03:00:00 11.6 30 Sur 48 Sur 0 -- -- 57
2017-11-23 02:00:00 12.2 32 Sur 45 Sur 0 -- -- 54
2017-11-23 01:00:00 12.1 25 Sur 43 Sur 0 -- -- 53
2017-11-23 00:00:00 12.6 24 Sur 43 Sur 0 -- -- 50
2017-11-22 23:00:00 12.9 21 Sur 38 Sur 0 -- -- 46
2017-11-22 22:00:00 12.4 18 Sur 33 Sur 0 -- -- 47
2017-11-22 21:00:00 12.6 18 Sur 39 Sur 0 -- -- 47
2017-11-22 20:00:00 12.3 26 Sur 39 Sur 0 -- -- 46
2017-11-22 19:00:00 11.9 17 Sur 34 Sur 0 -- -- 49
2017-11-22 18:00:00 12.3 18 Sur 33 Sur 0 -- -- 48
2017-11-22 17:00:00 13.1 20 Sur 43 Sur 0 -- -- 46
2017-11-22 16:00:00 13.7 18 Sur 37 Sur 0 -- -- 44
2017-11-22 15:00:00 14.5 17 Sur 36 Sur 0 -- -- 44
2017-11-22 14:00:00 13.3 24 Sur 38 Sur 0 -- -- 45
2017-11-22 13:00:00 14.1 23 Sur 46 Sur 0 -- -- 44
2017-11-22 12:00:00 14 25 Sur 40 Sur 0 -- -- 43
2017-11-22 11:00:00 13.1 25 Sur 41 Sur 0 -- -- 43
2017-11-22 10:00:00 12.1 19 Sur 37 Sur 0 -- -- 45
2017-11-22 09:00:00 9.6 16 Sur 29 Sur 0 -- -- 51
2017-11-22 08:00:00 8 18 Sur 25 Sur 0 -- -- 57
2017-11-22 07:00:00 7.1 13 Sur 23 Sudeste 0 -- -- 59
2017-11-22 06:00:00 8.1 13 Sur 19 Sur 0 -- -- 55
2017-11-22 05:00:00 8.3 9 Sur 22 Sudeste 0 -- -- 55
2017-11-22 04:00:00 9.3 16 Sur 22 Sur 0 -- -- 52
2017-11-22 03:00:00 9.8 16 Sur 24 Sur 0 -- -- 50
2017-11-22 02:00:00 -- -- -- -- -- -- -- -- --
2017-11-22 01:00:00 -- -- -- -- -- -- -- -- --
2017-11-22 00:00:00 -- -- -- -- -- -- -- -- --
2017-11-21 23:00:00 -- -- -- -- -- -- -- -- --
2017-11-21 22:00:00 -- -- -- -- -- -- -- -- --
2017-11-21 21:00:00 -- -- -- -- -- -- -- -- --
2017-11-21 20:00:00 -- -- -- -- -- -- -- -- --
2017-11-21 19:00:00 -- -- -- -- -- -- -- -- --
2017-11-21 18:00:00 -- -- -- -- -- -- -- -- --
2017-11-21 17:00:00 -- -- -- -- -- -- -- -- --
2017-11-21 16:00:00 -- -- -- -- -- -- -- -- --
2017-11-21 15:00:00 -- -- -- -- -- -- -- -- --
2017-11-21 14:00:00 -- -- -- -- -- -- -- -- --
2017-11-21 13:00:00 -- -- -- -- -- -- -- -- --
2017-11-21 12:00:00 -- -- -- -- -- -- -- -- --
2017-11-21 11:00:00 -- -- -- -- -- -- -- -- --
2017-11-21 10:00:00 -- -- -- -- -- -- -- -- --
2017-11-21 09:00:00 -- -- -- -- -- -- -- -- --
2017-11-21 08:00:00 -- -- -- -- -- -- -- -- --
2017-11-21 07:00:00 -0.4 14 Sur 19 Sur 0 -- -- 85
2017-11-21 06:00:00 1 13 Sur 18 Sur 0 -- -- 81
2017-11-21 05:00:00 0.8 11 Sur 16 Sur 0 -- -- 80
2017-11-21 04:00:00 0.4 14 Sur 17 Sur 0 -- -- 81
2017-11-21 03:00:00 0.1 14 Sur 19 Sur 0 -- -- 83
2017-11-21 02:00:00 1 13 Sur 16 Sur 0 -- -- 80
2017-11-21 01:00:00 1 13 Sur 20 Sur 0 -- -- 83
2017-11-21 00:00:00 2.3 12 Sur 17 Sur 0 -- -- 80
2017-11-20 23:00:00 2.7 15 Sur 21 Sur 0 -- -- 83
2017-11-20 22:00:00 5.3 9 Sur 13 Sur 0 -- -- 72
2017-11-20 21:00:00 6.9 10 Sudeste 13 Sudeste 0 -- -- 67
2017-11-20 20:00:00 8.8 7 Sur 12 Sur 0 -- -- 59
2017-11-20 19:00:00 10.7 9 Sur 12 Sur 0 -- -- 53
2017-11-20 18:00:00 14.5 8 Sur 19 Sur 0 -- -- 43
2017-11-20 17:00:00 17.7 12 Sur 18 Sur 0 -- -- 37
2017-11-20 16:00:00 18.4 4 Sur 10 Norte 0 -- -- 35
2017-11-20 15:00:00 16.4 8 Nordeste 13 Norte 0 -- -- 44
2017-11-20 14:00:00 16.6 7 Norte 12 Norte 0 -- -- 44
2017-11-20 13:00:00 14.5 4 Noroeste 10 Norte 0 -- -- 49
2017-11-20 12:00:00 12.9 3 Sudeste 8 Sur 0 -- -- 53
2017-11-20 11:00:00 8.9 6 Sur 8 Sudeste 0 -- -- 71
2017-11-20 10:00:00 4.2 4 Sur 12 Sur 0 -- -- 82
2017-11-20 09:00:00 -0.3 10 Sur 17 Sur 0 -- -- 89
2017-11-20 08:00:00 0.1 10 Sur 15 Sur 0 -- -- 87
2017-11-20 07:00:00 0.1 13 Sur 17 Sur 0 -- -- 90
2017-11-20 06:00:00 0.1 14 Sur 16 Sur 0 -- -- 88
2017-11-20 05:00:00 0.9 11 Sur 15 Sur 0 -- -- 87
2017-11-20 04:00:00 0.7 13 Sur 17 Sur 0 -- -- 88
2017-11-20 03:00:00 0.9 12 Sur 17 Sur 0 -- -- 89
2017-11-20 02:00:00 1.2 14 Sur 16 Sur 0 -- -- 88
2017-11-20 01:00:00 1.3 13 Sur 16 Sur 0 -- -- 89
2017-11-20 00:00:00 2.9 8 Sur 13 Sur 0 -- -- 84
2017-11-19 23:00:00 3.4 10 Sur 16 Sur 0 -- -- 83
2017-11-19 22:00:00 4.4 11 Sur 15 Sur 0 -- -- 80
2017-11-19 21:00:00 6.7 8 Sur 10 Sur 0 -- -- 71
2017-11-19 20:00:00 8.5 3 Sur 8 Norte 0 -- -- 62
2017-11-19 19:00:00 11.7 6 Norte 8 Norte 0 -- -- 52
2017-11-19 18:00:00 14.2 4 Norte 9 Norte 0 -- -- 48
2017-11-19 17:00:00 15.1 5 Norte 12 Nordeste 0 -- -- 45
2017-11-19 16:00:00 14.7 7 Norte 15 Norte 0 -- -- 43
2017-11-19 15:00:00 13.9 9 Norte 15 Norte 0 -- -- 44
2017-11-19 14:00:00 12.6 9 Norte 13 Norte 0 -- -- 55
2017-11-19 13:00:00 11.7 5 Noroeste 10 Norte 0 -- -- 60
2017-11-19 12:00:00 8 4 Norte 10 Norte 0 -- -- 72
2017-11-19 11:00:00 6.1 6 Norte 9 Norte 0 -- -- 77
2017-11-19 10:00:00 -- -- -- -- -- -- -- -- --
2017-11-19 09:00:00 -- -- -- -- -- -- -- -- --
2017-11-19 08:00:00 -- -- -- -- -- -- -- -- --
2017-11-19 07:00:00 -- -- -- -- -- -- -- -- --
2017-11-19 06:00:00 -- -- -- -- -- -- -- -- --
2017-11-19 05:00:00 -- -- -- -- -- -- -- -- --
2017-11-19 04:00:00 -- -- -- -- -- -- -- -- --
2017-11-19 03:00:00 -- -- -- -- -- -- -- -- --
2017-11-19 02:00:00 -- -- -- -- -- -- -- -- --
2017-11-19 01:00:00 -- -- -- -- -- -- -- -- --
2017-11-19 00:00:00 -- -- -- -- -- -- -- -- --
2017-11-18 23:00:00 -- -- -- -- -- -- -- -- --
2017-11-18 22:00:00 -- -- -- -- -- -- -- -- --
2017-11-18 21:00:00 -- -- -- -- -- -- -- -- --
2017-11-18 20:00:00 -- -- -- -- -- -- -- -- --
2017-11-18 19:00:00 -- -- -- -- -- -- -- -- --
2017-11-18 18:00:00 -- -- -- -- -- -- -- -- --
2017-11-18 17:00:00 -- -- -- -- -- -- -- -- --
2017-11-18 16:00:00 -- -- -- -- -- -- -- -- --
2017-11-18 15:00:00 -- -- -- -- -- -- -- -- --
2017-11-18 14:00:00 -- -- -- -- -- -- -- -- --
2017-11-18 13:00:00 -- -- -- -- -- -- -- -- --
2017-11-18 12:00:00 -- -- -- -- -- -- -- -- --
2017-11-18 11:00:00 -- -- -- -- -- -- -- -- --
2017-11-18 10:00:00 -- -- -- -- -- -- -- -- --
2017-11-18 09:00:00 -- -- -- -- -- -- -- -- --
2017-11-18 08:00:00 -- -- -- -- -- -- -- -- --
2017-11-18 07:00:00 -- -- -- -- -- -- -- -- --
2017-11-18 06:00:00 -- -- -- -- -- -- -- -- --
2017-11-18 05:00:00 -- -- -- -- -- -- -- -- --
2017-11-18 04:00:00 -- -- -- -- -- -- -- -- --
2017-11-18 03:00:00 -- -- -- -- -- -- -- -- --
2017-11-18 02:00:00 -- -- -- -- -- -- -- -- --
2017-11-18 01:00:00 -- -- -- -- -- -- -- -- --
2017-11-18 00:00:00 -- -- -- -- -- -- -- -- --
2017-11-17 23:00:00 -- -- -- -- -- -- -- -- --
2017-11-17 22:00:00 -- -- -- -- -- -- -- -- --
2017-11-17 21:00:00 -- -- -- -- -- -- -- -- --
2017-11-17 20:00:00 -- -- -- -- -- -- -- -- --
2017-11-17 19:00:00 -- -- -- -- -- -- -- -- --
2017-11-17 18:00:00 -- -- -- -- -- -- -- -- --
2017-11-17 17:00:00 -- -- -- -- -- -- -- -- --
2017-11-17 16:00:00 -- -- -- -- -- -- -- -- --
2017-11-17 15:00:00 -- -- -- -- -- -- -- -- --
2017-11-17 14:00:00 -- -- -- -- -- -- -- -- --
2017-11-17 13:00:00 -- -- -- -- -- -- -- -- --
2017-11-17 12:00:00 -- -- -- -- -- -- -- -- --
2017-11-17 11:00:00 -- -- -- -- -- -- -- -- --
2017-11-17 10:00:00 -- -- -- -- -- -- -- -- --
2017-11-17 09:00:00 -- -- -- -- -- -- -- -- --
2017-11-17 08:00:00 -- -- -- -- -- -- -- -- --
2017-11-17 07:00:00 -- -- -- -- -- -- -- -- --
2017-11-17 06:00:00 -- -- -- -- -- -- -- -- --
2017-11-17 05:00:00 -- -- -- -- -- -- -- -- --
2017-11-17 04:00:00 -- -- -- -- -- -- -- -- --
2017-11-17 03:00:00 -- -- -- -- -- -- -- -- --
2017-11-17 02:00:00 -- -- -- -- -- -- -- -- --
2017-11-17 01:00:00 -- -- -- -- -- -- -- -- --
2017-11-17 00:00:00 -- -- -- -- -- -- -- -- --
2017-11-16 23:00:00 -- -- -- -- -- -- -- -- --
2017-11-16 22:00:00 -- -- -- -- -- -- -- -- --
2017-11-16 21:00:00 -- -- -- -- -- -- -- -- --
2017-11-16 20:00:00 -- -- -- -- -- -- -- -- --
2017-11-16 19:00:00 -- -- -- -- -- -- -- -- --
2017-11-16 18:00:00 -- -- -- -- -- -- -- -- --
2017-11-16 17:00:00 -- -- -- -- -- -- -- -- --
2017-11-16 16:00:00 -- -- -- -- -- -- -- -- --
2017-11-16 15:00:00 -- -- -- -- -- -- -- -- --
2017-11-16 14:00:00 -- -- -- -- -- -- -- -- --
2017-11-16 13:00:00 -- -- -- -- -- -- -- -- --
2017-11-16 12:00:00 -- -- -- -- -- -- -- -- --
2017-11-16 11:00:00 -- -- -- -- -- -- -- -- --
2017-11-16 10:00:00 -- -- -- -- -- -- -- -- --
2017-11-16 09:00:00 -- -- -- -- -- -- -- -- --
2017-11-16 08:00:00 -- -- -- -- -- -- -- -- --
2017-11-16 07:00:00 -- -- -- -- -- -- -- -- --
2017-11-16 06:00:00 -- -- -- -- -- -- -- -- --
2017-11-16 05:00:00 -- -- -- -- -- -- -- -- --
2017-11-16 04:00:00 -- -- -- -- -- -- -- -- --
2017-11-16 03:00:00 -- -- -- -- -- -- -- -- --
2017-11-16 02:00:00 -- -- -- -- -- -- -- -- --
2017-11-16 01:00:00 -- -- -- -- -- -- -- -- --
2017-11-16 00:00:00 -- -- -- -- -- -- -- -- --
2017-11-15 23:00:00 -- -- -- -- -- -- -- -- --
2017-11-15 22:00:00 -- -- -- -- -- -- -- -- --
2017-11-15 21:00:00 -- -- -- -- -- -- -- -- --
2017-11-15 20:00:00 -- -- -- -- -- -- -- -- --
2017-11-15 19:00:00 -- -- -- -- -- -- -- -- --
2017-11-15 18:00:00 -- -- -- -- -- -- -- -- --
2017-11-15 17:00:00 -- -- -- -- -- -- -- -- --
2017-11-15 16:00:00 -- -- -- -- -- -- -- -- --
2017-11-15 15:00:00 -- -- -- -- -- -- -- -- --
2017-11-15 14:00:00 -- -- -- -- -- -- -- -- --
2017-11-15 13:00:00 -- -- -- -- -- -- -- -- --
2017-11-15 12:00:00 -- -- -- -- -- -- -- -- --
2017-11-15 11:00:00 -- -- -- -- -- -- -- -- --
2017-11-15 10:00:00 -- -- -- -- -- -- -- -- --
2017-11-15 09:00:00 -- -- -- -- -- -- -- -- --
2017-11-15 08:00:00 -- -- -- -- -- -- -- -- --
2017-11-15 07:00:00 -- -- -- -- -- -- -- -- --
2017-11-15 06:00:00 -- -- -- -- -- -- -- -- --
2017-11-15 05:00:00 -- -- -- -- -- -- -- -- --
2017-11-15 04:00:00 -- -- -- -- -- -- -- -- --
2017-11-15 03:00:00 -- -- -- -- -- -- -- -- --
2017-11-15 02:00:00 -- -- -- -- -- -- -- -- --
2017-11-15 01:00:00 -- -- -- -- -- -- -- -- --
2017-11-15 00:00:00 -- -- -- -- -- -- -- -- --